createdAt,value
2022-07-31T00:02:30.323Z,100112.05
2022-07-31T00:05:19.694Z,100097.16
2022-07-31T00:08:09.469Z,100097.44
2022-07-31T00:10:58.437Z,100098.84
2022-07-31T00:13:57.236Z,100107.61
2022-07-31T00:16:47.242Z,100101.95
2022-07-31T00:19:37.194Z,100099.05
2022-07-31T00:22:25.747Z,100096.12
2022-07-31T00:25:15.730Z,100091.89
2022-07-31T00:28:05.094Z,100089.09
2022-07-31T00:30:53.867Z,100084.65
2022-07-31T00:33:48.343Z,100082.03
2022-07-31T00:36:37.129Z,100083.73
2022-07-31T00:39:27.954Z,100093.00
2022-07-31T00:42:21.723Z,100087.88
2022-07-31T00:45:13.980Z,100098.25
2022-07-31T00:48:03.635Z,100102.86
2022-07-31T00:50:53.118Z,100102.36
2022-07-31T00:53:41.713Z,100100.46
2022-07-31T00:56:31.153Z,100099.95
2022-07-31T00:59:24.844Z,100099.45
2022-07-31T01:02:14.738Z,100100.23
2022-07-31T01:05:06.570Z,100100.84
2022-07-31T01:07:54.910Z,100095.72
2022-07-31T01:10:53.838Z,100094.39
2022-07-31T01:13:48.422Z,100098.22
2022-07-31T01:16:41.252Z,100092.28
2022-07-31T01:19:39.694Z,100092.28
2022-07-31T01:22:56.444Z,100102.92
2022-07-31T01:26:04.241Z,100095.05
2022-07-31T01:29:10.023Z,100086.40
2022-07-31T01:32:03.891Z,100097.27
2022-07-31T01:34:55.595Z,100101.69
2022-07-31T01:37:50.473Z,100097.95
2022-07-31T01:40:45.378Z,100091.81
2022-07-31T01:43:39.419Z,100102.45
2022-07-31T01:46:30.900Z,100100.66
2022-07-31T01:49:28.280Z,100096.09
2022-07-31T01:52:17.723Z,100086.42
2022-07-31T01:55:10.209Z,100102.20
2022-07-31T01:58:01.788Z,100096.58
2022-07-31T02:00:56.266Z,100099.89
2022-07-31T02:03:51.325Z,100092.33
2022-07-31T02:06:41.669Z,100094.81
2022-07-31T02:09:33.507Z,100091.91
2022-07-31T02:12:33.757Z,100086.24
2022-07-31T02:15:24.834Z,100080.61
2022-07-31T02:18:15.297Z,100088.52
2022-07-31T02:21:24.669Z,100080.97
2022-07-31T02:24:14.102Z,100086.17
2022-07-31T02:27:04.801Z,100083.53
2022-07-31T02:30:16.050Z,100075.47
2022-07-31T02:33:06.318Z,100075.23
2022-07-31T02:35:58.810Z,100070.67
2022-07-31T02:38:49.764Z,100074.80
2022-07-31T02:41:39.796Z,100081.08
2022-07-31T02:44:34.110Z,100076.55
2022-07-31T02:47:24.223Z,100079.03
2022-07-31T02:50:13.388Z,100079.09
2022-07-31T02:53:08.342Z,100075.35
2022-07-31T02:55:58.777Z,100081.88
2022-07-31T02:58:48.203Z,100087.61
2022-07-31T03:01:42.948Z,100083.86
2022-07-31T03:04:32.524Z,100091.76
2022-07-31T03:07:21.483Z,100094.27
2022-07-31T03:10:12.853Z,100091.61
2022-07-31T03:13:24.654Z,100102.00
2022-07-31T03:16:14.989Z,100104.20
2022-07-31T03:19:06.057Z,100108.55
2022-07-31T03:21:56.281Z,100115.64
2022-07-31T03:24:45.352Z,100121.91
2022-07-31T03:27:34.517Z,100120.88
2022-07-31T03:30:25.508Z,100116.61
2022-07-31T03:33:15.916Z,100118.58
2022-07-31T03:36:05.499Z,100120.23
2022-07-31T03:38:55.270Z,100112.95
2022-07-31T03:41:55.857Z,100117.85
2022-07-31T03:44:45.959Z,100126.28
2022-07-31T03:47:34.848Z,100124.15
2022-07-31T03:50:25.515Z,100129.31
2022-07-31T03:53:14.817Z,100130.41
2022-07-31T03:56:07.156Z,100127.17
2022-07-31T03:58:56.842Z,100125.56
2022-07-31T04:01:58.233Z,100123.94
2022-07-31T04:05:03.934Z,100126.65
2022-07-31T04:07:55.869Z,100123.94
2022-07-31T04:10:44.623Z,100126.65
2022-07-31T04:13:36.801Z,100130.19
2022-07-31T04:16:25.205Z,100123.42
2022-07-31T04:19:13.757Z,100123.42
2022-07-31T04:22:04.483Z,100127.52
2022-07-31T04:24:54.951Z,100122.10
2022-07-31T04:28:06.441Z,100124.81
2022-07-31T04:30:56.219Z,100127.52
2022-07-31T04:33:48.767Z,100125.60
2022-07-31T04:36:38.647Z,100119.92
2022-07-31T04:39:27.813Z,100121.53
2022-07-31T04:42:18.204Z,100121.53
2022-07-31T04:45:11.418Z,100119.34
2022-07-31T04:48:00.427Z,100117.16
2022-07-31T04:50:49.595Z,100117.69
2022-07-31T04:53:38.962Z,100122.01
2022-07-31T04:56:35.567Z,100124.15
2022-07-31T04:59:59.380Z,100123.58
2022-07-31T05:02:35.287Z,100127.90
2022-07-31T05:05:23.884Z,100120.30
2022-07-31T05:08:13.768Z,100119.98
2022-07-31T05:11:24.739Z,100125.66
2022-07-31T05:14:14.523Z,100132.97
2022-07-31T05:17:03.281Z,100143.80
2022-07-31T05:20:12.794Z,100149.52
2022-07-31T05:23:19.290Z,100151.71
2022-07-31T05:26:40.406Z,100154.42
2022-07-31T05:29:30.651Z,100147.09
2022-07-31T05:32:19.552Z,100146.30
2022-07-31T05:35:10.081Z,100145.20
2022-07-31T05:37:59.724Z,100151.41
2022-07-31T05:41:06.300Z,100143.28
2022-07-31T05:44:15.532Z,100143.28
2022-07-31T05:47:09.668Z,100149.52
2022-07-31T05:49:59.188Z,100153.84
2022-07-31T05:52:49.125Z,100154.12
2022-07-31T05:55:57.384Z,100149.80
2022-07-31T05:58:55.148Z,100151.41
2022-07-31T06:01:44.727Z,100156.03
2022-07-31T06:04:33.692Z,100151.41
2022-07-31T06:07:22.442Z,100152.23
2022-07-31T06:10:12.223Z,100147.34
2022-07-31T06:13:00.973Z,100151.36
2022-07-31T06:15:50.960Z,100145.37
2022-07-31T06:18:39.713Z,100139.67
2022-07-31T06:21:30.791Z,100140.99
2022-07-31T06:24:19.070Z,100140.72
2022-07-31T06:27:13.739Z,100139.63
2022-07-31T06:30:16.646Z,100139.84
2022-07-31T06:33:07.975Z,100139.00
2022-07-31T06:35:57.933Z,100137.60
2022-07-31T06:38:57.868Z,100138.64
2022-07-31T06:41:49.898Z,100135.35
2022-07-31T06:44:50.944Z,100133.44
2022-07-31T06:48:17.995Z,100134.17
2022-07-31T06:51:30.286Z,100138.44
2022-07-31T06:54:20.284Z,100142.42
2022-07-31T06:57:16.622Z,100133.71
2022-07-31T07:00:20.046Z,100142.30
2022-07-31T07:03:11.741Z,100148.18
2022-07-31T07:06:00.503Z,100147.29
2022-07-31T07:08:49.869Z,100142.89
2022-07-31T07:11:40.671Z,100141.73
2022-07-31T07:14:29.590Z,100147.91
2022-07-31T07:17:19.616Z,100146.22
2022-07-31T07:20:13.883Z,100148.35
2022-07-31T07:23:03.270Z,100154.80
2022-07-31T07:26:09.515Z,100147.72
2022-07-31T07:28:59.299Z,100149.58
2022-07-31T07:31:48.172Z,100150.09
2022-07-31T07:34:37.542Z,100152.21
2022-07-31T07:37:26.296Z,100158.67
2022-07-31T07:40:16.441Z,100156.98
2022-07-31T07:43:06.065Z,100153.67
2022-07-31T07:45:54.410Z,100150.06
2022-07-31T07:48:43.370Z,100153.80
2022-07-31T07:51:59.215Z,100145.57
2022-07-31T07:55:01.845Z,100144.39
2022-07-31T07:58:12.162Z,100139.38
2022-07-31T08:01:34.063Z,100140.91
2022-07-31T08:04:32.159Z,100144.36
2022-07-31T08:07:42.790Z,100137.93
2022-07-31T08:11:07.058Z,100134.78
2022-07-31T08:14:03.395Z,100143.34
2022-07-31T08:16:55.226Z,100140.22
2022-07-31T08:19:48.266Z,100142.84
2022-07-31T08:22:41.364Z,100153.02
2022-07-31T08:25:32.132Z,100139.83
2022-07-31T08:28:24.183Z,100141.66
2022-07-31T08:31:13.334Z,100141.84
2022-07-31T08:34:12.739Z,100143.36
2022-07-31T08:37:52.091Z,100141.86
2022-07-31T08:40:43.032Z,100138.75
2022-07-31T08:44:01.890Z,100142.36
2022-07-31T08:46:42.722Z,100144.47
2022-07-31T08:49:33.489Z,100141.70
2022-07-31T08:52:23.880Z,100146.80
2022-07-31T08:55:54.953Z,100135.46
2022-07-31T08:58:28.460Z,100134.86
2022-07-31T09:01:17.687Z,100129.69
2022-07-31T09:04:07.202Z,100121.32
2022-07-31T09:06:59.525Z,100126.22
2022-07-31T09:09:51.234Z,100116.00
2022-07-31T09:12:41.451Z,100115.13
2022-07-31T09:15:33.892Z,100106.32
2022-07-31T09:18:25.311Z,100105.50
2022-07-31T09:21:25.450Z,100103.09
2022-07-31T09:24:25.807Z,100103.89
2022-07-31T09:27:16.862Z,100100.48
2022-07-31T09:30:06.991Z,100095.77
2022-07-31T09:33:16.592Z,100088.33
2022-07-31T09:36:26.044Z,100096.79
2022-07-31T09:39:27.001Z,100095.76
2022-07-31T09:42:45.718Z,100095.25
2022-07-31T09:45:48.370Z,100082.32
2022-07-31T09:48:50.106Z,100084.70
2022-07-31T09:51:41.706Z,100083.02
2022-07-31T09:54:32.999Z,100082.62
2022-07-31T09:57:22.082Z,100075.69
2022-07-31T10:00:17.467Z,100079.69
2022-07-31T10:03:07.993Z,100081.64
2022-07-31T10:05:58.868Z,100075.49
2022-07-31T10:08:51.238Z,100068.53
2022-07-31T10:12:01.462Z,100058.98
2022-07-31T10:14:54.123Z,100055.36
2022-07-31T10:17:47.315Z,100059.49
2022-07-31T10:20:58.318Z,100061.17
2022-07-31T10:23:54.309Z,100049.21
2022-07-31T10:27:10.842Z,100042.38
2022-07-31T10:29:54.243Z,100042.03
2022-07-31T10:32:44.309Z,100042.95
2022-07-31T10:35:55.740Z,100035.11
2022-07-31T10:39:31.166Z,100036.03
2022-07-31T10:42:52.758Z,100042.76
2022-07-31T10:45:49.471Z,100030.79
2022-07-31T10:48:57.388Z,100024.95
2022-07-31T10:52:10.976Z,100032.77
2022-07-31T10:55:14.587Z,100013.01
2022-07-31T10:58:19.835Z,100024.77
2022-07-31T11:01:18.243Z,100022.84
2022-07-31T11:04:31.463Z,100006.02
2022-07-31T11:07:35.653Z,100015.85
2022-07-31T11:10:28.100Z,100019.97
2022-07-31T11:13:33.626Z,100011.52
2022-07-31T11:16:51.894Z,100005.70
2022-07-31T11:20:04.195Z,100005.11
2022-07-31T11:23:01.194Z,100003.19
2022-07-31T11:25:50.123Z,99988.42
2022-07-31T11:28:44.681Z,99986.50
2022-07-31T11:31:33.764Z,99987.41
2022-07-31T11:34:22.921Z,99972.55
2022-07-31T11:37:18.706Z,99982.47
2022-07-31T11:40:12.216Z,99967.97
2022-07-31T11:43:25.330Z,99972.41
2022-07-31T11:46:12.142Z,99974.81
2022-07-31T11:49:02.610Z,99969.66
2022-07-31T11:51:59.984Z,99962.70
2022-07-31T11:54:48.650Z,99958.45
2022-07-31T11:57:50.734Z,99965.20
2022-07-31T12:00:51.814Z,99955.92
2022-07-31T12:03:40.925Z,99965.30
2022-07-31T12:06:34.596Z,99952.39
2022-07-31T12:10:02.135Z,99963.13
2022-07-31T12:12:35.869Z,99957.88
2022-07-31T12:15:25.438Z,99958.08
2022-07-31T12:18:13.991Z,99957.14
2022-07-31T12:21:04.865Z,99947.51
2022-07-31T12:23:54.165Z,99948.04
2022-07-31T12:26:49.723Z,99942.41
2022-07-31T12:29:39.166Z,99933.75
2022-07-31T12:32:28.792Z,99936.38
2022-07-31T12:35:17.794Z,99928.31
2022-07-31T12:38:23.998Z,99922.94
2022-07-31T12:41:17.224Z,99926.64
2022-07-31T12:44:14.888Z,99926.11
2022-07-31T12:47:19.595Z,99914.95
2022-07-31T12:50:15.430Z,99910.25
2022-07-31T12:53:05.617Z,99916.55
2022-07-31T12:55:54.373Z,99913.70
2022-07-31T12:58:43.334Z,99917.27
2022-07-31T13:01:33.285Z,99911.05
2022-07-31T13:04:21.664Z,99909.36
2022-07-31T13:07:10.422Z,99908.75
2022-07-31T13:10:20.467Z,99910.34
2022-07-31T13:13:08.987Z,99906.27
2022-07-31T13:15:58.188Z,99902.08
2022-07-31T13:18:46.742Z,99898.61
2022-07-31T13:21:48.142Z,99889.55
2022-07-31T13:24:39.202Z,99888.67
2022-07-31T13:27:28.524Z,99876.17
2022-07-31T13:30:17.535Z,99864.52
2022-07-31T13:33:06.696Z,99867.27
2022-07-31T13:35:55.864Z,99873.42
2022-07-31T13:38:45.234Z,99866.77
2022-07-31T13:41:35.216Z,99870.39
2022-07-31T13:44:23.976Z,99868.42
2022-07-31T13:47:13.499Z,99866.92
2022-07-31T13:50:02.918Z,99868.58
2022-07-31T13:52:52.132Z,99861.14
2022-07-31T13:55:41.248Z,99859.98
2022-07-31T13:58:30.005Z,99862.58
2022-07-31T14:01:18.587Z,99864.73
2022-07-31T14:04:10.760Z,99862.98
2022-07-31T14:07:05.622Z,99866.80
2022-07-31T14:09:55.500Z,99878.61
2022-07-31T14:12:44.639Z,99869.48
2022-07-31T14:15:34.004Z,99884.81
2022-07-31T14:18:22.968Z,99875.22
2022-07-31T14:21:12.132Z,99896.23
2022-07-31T14:24:07.582Z,99906.72
2022-07-31T14:26:56.401Z,99928.61
2022-07-31T14:29:46.388Z,99920.69
2022-07-31T14:32:34.733Z,99939.29
2022-07-31T14:35:23.692Z,99957.91
2022-07-31T14:38:13.063Z,99950.71
2022-07-31T14:41:16.358Z,99959.52
2022-07-31T14:44:05.933Z,99984.61
2022-07-31T14:46:54.689Z,99957.44
2022-07-31T14:50:06.819Z,99969.19
2022-07-31T14:52:52.271Z,99964.17
2022-07-31T14:55:41.231Z,99974.48
2022-07-31T14:58:30.190Z,99984.33
2022-07-31T15:01:19.036Z,99980.84
2022-07-31T15:04:08.727Z,99968.72
2022-07-31T15:07:18.710Z,99968.35
2022-07-31T15:10:11.750Z,99977.47
2022-07-31T15:13:01.619Z,99976.28
2022-07-31T15:15:50.781Z,99969.81
2022-07-31T15:18:39.534Z,99974.18
2022-07-31T15:21:28.650Z,99975.53
2022-07-31T15:24:17.457Z,99986.00
2022-07-31T15:27:06.921Z,99969.41
2022-07-31T15:30:05.764Z,99958.38
2022-07-31T15:32:56.424Z,99962.14
2022-07-31T15:35:46.801Z,99960.21
2022-07-31T15:38:38.887Z,99959.64
2022-07-31T15:41:28.625Z,99947.27
2022-07-31T15:44:17.379Z,99927.75
2022-07-31T15:47:06.737Z,99923.92
2022-07-31T15:49:56.122Z,99921.88
2022-07-31T15:52:45.234Z,99918.55
2022-07-31T15:55:34.449Z,99920.77
2022-07-31T15:58:23.016Z,99919.27
2022-07-31T16:01:12.446Z,99925.09
2022-07-31T16:04:01.334Z,99934.03
2022-07-31T16:06:50.558Z,99933.84
2022-07-31T16:10:03.714Z,99928.09
2022-07-31T16:12:48.895Z,99919.64
2022-07-31T16:15:38.074Z,99928.59
2022-07-31T16:18:27.634Z,99929.91
2022-07-31T16:21:16.390Z,99941.58
2022-07-31T16:24:06.376Z,99943.80
2022-07-31T16:26:54.729Z,99943.61
2022-07-31T16:29:59.643Z,99949.16
2022-07-31T16:32:51.687Z,99945.95
2022-07-31T16:35:40.853Z,99941.41
2022-07-31T16:38:30.997Z,99953.39
2022-07-31T16:41:19.591Z,99960.25
2022-07-31T16:44:08.551Z,99965.19
2022-07-31T16:46:56.701Z,99963.36
2022-07-31T16:49:45.489Z,99964.97
2022-07-31T16:52:33.998Z,99969.11
2022-07-31T16:55:55.774Z,99966.69
2022-07-31T16:58:32.396Z,99971.33
2022-07-31T17:01:53.997Z,99973.55
2022-07-31T17:04:31.310Z,99977.63
2022-07-31T17:07:20.784Z,99974.41
2022-07-31T17:10:11.355Z,99971.69
2022-07-31T17:13:00.546Z,99973.40
2022-07-31T17:15:49.507Z,99977.54
2022-07-31T17:18:38.670Z,99983.86
2022-07-31T17:21:30.858Z,99986.67
2022-07-31T17:24:20.893Z,99986.48
2022-07-31T17:27:11.240Z,99978.13
2022-07-31T17:30:00.410Z,99990.91
2022-07-31T17:32:49.615Z,99987.19
2022-07-31T17:35:38.164Z,99993.81
2022-07-31T17:38:27.125Z,99991.78
2022-07-31T17:41:25.206Z,100006.56
2022-07-31T17:44:15.534Z,100012.86
2022-07-31T17:47:05.285Z,100014.56
2022-07-31T17:49:55.056Z,100014.05
2022-07-31T17:52:44.830Z,100017.67
2022-07-31T17:55:34.097Z,100020.16
2022-07-31T17:58:22.954Z,100033.22
2022-07-31T18:01:11.506Z,100034.69
2022-07-31T18:04:00.874Z,100025.52
2022-07-31T18:06:54.463Z,100026.08
2022-07-31T18:09:43.717Z,100029.39
2022-07-31T18:12:56.863Z,100024.55
2022-07-31T18:15:42.318Z,100039.80
2022-07-31T18:18:31.276Z,100029.84
2022-07-31T18:21:20.233Z,100033.16
2022-07-31T18:24:10.219Z,100031.02
2022-07-31T18:26:58.494Z,100033.81
2022-07-31T18:29:55.809Z,100035.50
2022-07-31T18:32:45.705Z,100035.26
2022-07-31T18:35:34.456Z,100027.20
2022-07-31T18:38:22.801Z,100039.45
2022-07-31T18:41:11.609Z,100034.09
2022-07-31T18:44:01.542Z,100031.45
2022-07-31T18:46:52.792Z,100027.70
2022-07-31T18:51:02.047Z,100032.09
2022-07-31T18:52:51.155Z,100028.33
2022-07-31T18:55:39.906Z,100030.28
2022-07-31T18:58:30.508Z,100029.24
2022-07-31T19:01:19.344Z,100032.84
2022-07-31T19:04:08.992Z,100031.50
2022-07-31T19:06:58.002Z,100030.77
2022-07-31T19:09:46.557Z,100020.78
2022-07-31T19:12:35.515Z,100028.39
2022-07-31T19:15:25.094Z,100029.27
2022-07-31T19:18:14.183Z,100024.43
2022-07-31T19:21:21.339Z,100024.19
2022-07-31T19:24:12.657Z,100030.48
2022-07-31T19:27:01.616Z,100021.31
2022-07-31T19:29:50.783Z,100012.95
2022-07-31T19:32:40.566Z,100019.23
2022-07-31T19:35:29.520Z,100013.87
2022-07-31T19:38:18.683Z,100021.75
2022-07-31T19:41:08.261Z,100020.70
2022-07-31T19:43:56.808Z,100024.80
2022-07-31T19:46:45.767Z,100021.30
2022-07-31T19:49:37.917Z,100029.20
2022-07-31T19:52:26.770Z,100025.44
2022-07-31T19:55:17.158Z,100025.19
2022-07-31T19:58:06.320Z,100037.68
2022-07-31T20:00:55.075Z,100040.16
2022-07-31T20:03:44.509Z,100036.41
2022-07-31T20:06:33.403Z,100040.77
2022-07-31T20:09:22.363Z,100040.24
2022-07-31T20:12:13.112Z,100046.22
2022-07-31T20:15:01.515Z,100049.49
2022-07-31T20:17:50.884Z,100043.03
2022-07-31T20:20:41.088Z,100039.27
2022-07-31T20:23:33.558Z,100044.42
2022-07-31T20:26:24.078Z,100044.19
2022-07-31T20:29:13.073Z,100054.22
2022-07-31T20:32:01.876Z,100063.98
2022-07-31T20:34:52.221Z,100058.05
2022-07-31T20:37:40.978Z,100052.11
2022-07-31T20:40:30.140Z,100044.30
2022-07-31T20:43:20.222Z,100048.09
2022-07-31T20:46:11.267Z,100037.27
2022-07-31T20:49:00.784Z,100031.33
2022-07-31T20:51:51.632Z,100034.04
2022-07-31T20:54:40.471Z,100037.53
2022-07-31T20:57:28.746Z,100043.23
2022-07-31T21:00:19.681Z,100050.53
2022-07-31T21:03:09.337Z,100055.14
2022-07-31T21:05:57.950Z,100052.44
2022-07-31T21:08:46.500Z,100055.14
2022-07-31T21:11:35.667Z,100058.94
2022-07-31T21:14:24.219Z,100056.50
2022-07-31T21:17:12.970Z,100054.09
2022-07-31T21:20:06.677Z,100039.48
2022-07-31T21:22:56.013Z,100037.56
2022-07-31T21:25:46.406Z,100036.48
2022-07-31T21:28:38.984Z,100034.59
2022-07-31T21:31:29.538Z,100037.00
2022-07-31T21:34:19.709Z,100045.65
2022-07-31T21:37:09.774Z,100050.27
2022-07-31T21:40:09.358Z,100062.44
2022-07-31T21:43:01.100Z,100081.39
2022-07-31T21:45:57.869Z,100086.82
2022-07-31T21:48:52.644Z,100072.80
2022-07-31T21:51:44.384Z,100068.23
2022-07-31T21:54:33.691Z,100074.22
2022-07-31T21:57:22.501Z,100077.19
2022-07-31T22:00:15.891Z,100071.52
2022-07-31T22:03:06.098Z,100069.34
2022-07-31T22:06:13.901Z,100070.96
2022-07-31T22:09:02.658Z,100059.09
2022-07-31T22:12:01.327Z,100055.88
2022-07-31T22:14:51.841Z,100057.24
2022-07-31T22:17:41.213Z,100055.91
2022-07-31T22:20:30.952Z,100060.79
2022-07-31T22:23:20.479Z,100058.11
2022-07-31T22:26:10.817Z,100059.73
2022-07-31T22:29:01.000Z,100054.88
2022-07-31T22:31:53.293Z,100055.72
2022-07-31T22:34:43.370Z,100046.55
2022-07-31T22:37:32.284Z,100040.33
2022-07-31T22:40:22.273Z,100038.70
2022-07-31T22:44:11.175Z,100024.13
2022-07-31T22:46:21.122Z,100023.57
2022-07-31T22:49:11.392Z,100022.48
2022-07-31T22:52:00.680Z,100015.21
2022-07-31T22:54:49.639Z,100023.86
2022-07-31T22:57:40.491Z,100019.80
2022-07-31T23:00:29.206Z,100022.50
2022-07-31T23:03:18.366Z,100017.10
2022-07-31T23:06:31.188Z,100018.45
2022-07-31T23:09:18.230Z,100020.87
2022-07-31T23:12:09.882Z,100014.67
2022-07-31T23:14:58.779Z,100010.89
2022-07-31T23:17:47.328Z,100008.19
2022-07-31T23:20:36.495Z,99993.61
2022-07-31T23:23:25.224Z,99994.40
2022-07-31T23:26:14.210Z,99997.92
2022-07-31T23:29:03.376Z,99991.44
2022-07-31T23:31:52.130Z,99987.66
2022-07-31T23:34:40.888Z,99986.60
2022-07-31T23:37:29.661Z,99982.26
2022-07-31T23:40:19.011Z,99982.26
2022-07-31T23:43:07.921Z,99981.44
2022-07-31T23:45:56.316Z,99977.94
2022-07-31T23:48:45.484Z,99977.41
2022-07-31T23:51:34.399Z,99979.28
2022-07-31T23:54:24.226Z,99986.30
2022-07-31T23:57:12.771Z,99987.38
